Seeley, CA

1:19 PM PDT on August 25, 2016 (GMT -0700)
El Centro Naval Air Facility | | Change Station

Elev -43 ft 32.83 °N, 115.66 °W | Updated 23 minutes ago

Partly Cloudy
Partly Cloudy
102 °F
Feels Like 100 °F
N
4
Wind Variable Wind from Variable

Today
High -- | Low -- °F
--% Chance of Precip.
Yesterday
High -- | Low -- °F
Precip. -- in
Pressure 29.84 in
Visibility 10.0 miles
Clouds Few 8000 ft
Heat Index 100 °F
Dew Point 54 °F
Humidity 20%
Rainfall 0.00 in
Snow Depth Not available.
6:13 AM 7:15 PM
Last Quarter, 42% visible
METAR KNJK 251956Z VRB03KT 10SM FEW080 39/12 A2980 RMK AO2 SLP105 T03890122 $
Pressure 29.84 in
Visibility 10.0 miles
Clouds Few 8000 ft
Heat Index 100 °F
Dew Point 54 °F
Humidity 20%
Rainfall 0.00 in
Snow Depth Not available.
6:13 AM 7:15 PM
Last Quarter, 42% visible
METAR KNJK 251956Z VRB03KT 10SM FEW080 39/12 A2980 RMK AO2 SLP105 T03890122 $
A tropical disturbance pushing toward the Bahamas, is expected to develop into a tropical depression or storm, and will likely target Florida and the Gulf Coast this weekend into next week.

Right now, the disturbance remains a broad area of low pressure pushing through the Dominican Republic and Haiti, headed toward the southeast Bahamas. Rainfall totals over 3 inches (with locally higher amounts) are expected in HispaƱiola, particularly over elevated terrain.

10-Day Weather Forecast

Almanac

Astronomy

Aug. 25, 2016 Rise Set
Actual Time
Civil Twilight
Nautical Twilight
Astronomical Twilight
Moon
Length of Visible Light
Length of Day
Tomorrow will be .
, % of the Moon is Illuminated

Today's Extremes

State Highs State Lows

Community

WunderPhotos

Upload Photos

1,934,921 photos uploaded!

WunderBlog® & News

Nearby

Air Quality

  Air Quality AQ Index Pollutant
Not available.

Snow Depth

Station Depth Elevation

Earthquake Activity

City Distance Mag. Time & Date
Minimum magnitude displayed is 2.5.

Coastal Water Temperatures

Place Temperature

Stations

Nearby Weather Stations

Station Location Temp. Windchill Dew Point Humidity Wind Precip. Elev Updated Type
                   

Watches & Warnings

There are currently no watches in effect.